sensor_id;sensor_type;location;lat;lon;timestamp;pressure;altitude;pressure_sealevel;temperature;humidity
30338;BME280;17143;51.888;5.408;2022-10-26T00:12:58;101231.28;;;12.49;100.00
30338;BME280;17143;51.888;5.408;2022-10-26T00:28:01;101215.59;;;12.49;100.00
30338;BME280;17143;51.888;5.408;2022-10-26T00:43:02;101199.19;;;12.52;100.00
30338;BME280;17143;51.888;5.408;2022-10-26T00:58:06;101187.97;;;12.54;100.00
30338;BME280;17143;51.888;5.408;2022-10-26T01:13:10;101181.84;;;12.54;100.00
30338;BME280;17143;51.888;5.408;2022-10-26T01:28:22;101168.63;;;12.51;100.00
30338;BME280;17143;51.888;5.408;2022-10-26T01:43:35;101148.53;;;12.50;100.00
30338;BME280;17143;51.888;5.408;2022-10-26T01:59:01;101138.81;;;12.47;100.00
30338;BME280;17143;51.888;5.408;2022-10-26T02:14:11;101143.91;;;12.44;100.00
30338;BME280;17143;51.888;5.408;2022-10-26T02:29:16;101102.22;;;12.47;100.00
30338;BME280;17143;51.888;5.408;2022-10-26T02:44:22;101105.84;;;12.49;100.00
30338;BME280;17143;51.888;5.408;2022-10-26T02:59:29;101110.16;;;12.49;100.00
30338;BME280;17143;51.888;5.408;2022-10-26T03:14:33;101097.00;;;12.47;100.00
30338;BME280;17143;51.888;5.408;2022-10-26T03:29:35;101080.88;;;12.38;100.00
30338;BME280;17143;51.888;5.408;2022-10-26T03:44:37;101078.91;;;12.34;100.00
30338;BME280;17143;51.888;5.408;2022-10-26T03:59:39;101069.59;;;12.39;100.00
30338;BME280;17143;51.888;5.408;2022-10-26T04:14:41;101075.97;;;12.44;100.00
30338;BME280;17143;51.888;5.408;2022-10-26T04:29:43;101067.59;;;12.51;100.00
30338;BME280;17143;51.888;5.408;2022-10-26T04:44:45;101059.81;;;12.53;100.00
30338;BME280;17143;51.888;5.408;2022-10-26T04:59:47;101050.59;;;12.59;100.00
30338;BME280;17143;51.888;5.408;2022-10-26T05:14:49;101063.13;;;12.66;100.00
30338;BME280;17143;51.888;5.408;2022-10-26T05:29:51;101067.69;;;12.70;100.00
30338;BME280;17143;51.888;5.408;2022-10-26T05:44:53;101088.88;;;12.76;100.00
30338;BME280;17143;51.888;5.408;2022-10-26T05:59:56;101091.66;;;12.79;100.00
30338;BME280;17143;51.888;5.408;2022-10-26T06:14:59;101095.97;;;12.79;100.00
30338;BME280;17143;51.888;5.408;2022-10-26T06:30:04;101097.19;;;12.86;100.00
30338;BME280;17143;51.888;5.408;2022-10-26T06:45:10;101109.59;;;12.90;100.00
30338;BME280;17143;51.888;5.408;2022-10-26T07:00:18;101096.63;;;13.09;100.00
30338;BME280;17143;51.888;5.408;2022-10-26T07:15:21;101088.50;;;13.39;100.00
30338;BME280;17143;51.888;5.408;2022-10-26T07:30:23;101112.16;;;16.87;100.00
30338;BME280;17143;51.888;5.408;2022-10-26T07:45:25;101119.47;;;19.42;90.40
30338;BME280;17143;51.888;5.408;2022-10-26T08:00:27;101154.84;;;20.76;81.49
30338;BME280;17143;51.888;5.408;2022-10-26T08:15:30;101156.16;;;22.13;74.63
30338;BME280;17143;51.888;5.408;2022-10-26T08:30:32;101164.72;;;20.37;78.67
30338;BME280;17143;51.888;5.408;2022-10-26T08:45:37;101187.59;;;18.85;86.17
30338;BME280;17143;51.888;5.408;2022-10-26T09:00:40;101181.53;;;19.98;82.78
30338;BME280;17143;51.888;5.408;2022-10-26T09:15:53;101171.09;;;18.94;88.13
30338;BME280;17143;51.888;5.408;2022-10-26T09:30:59;101186.69;;;23.43;71.80
30338;BME280;17143;51.888;5.408;2022-10-26T09:46:02;101225.03;;;22.04;74.91
30338;BME280;17143;51.888;5.408;2022-10-26T10:01:04;101249.75;;;21.48;78.12
30338;BME280;17143;51.888;5.408;2022-10-26T10:16:10;101250.81;;;22.85;74.36
30338;BME280;17143;51.888;5.408;2022-10-26T10:31:20;101285.22;;;22.71;74.06
30338;BME280;17143;51.888;5.408;2022-10-26T10:46:24;101320.13;;;21.80;79.76
30338;BME280;17143;51.888;5.408;2022-10-26T11:01:30;101327.41;;;21.39;82.62
30338;BME280;17143;51.888;5.408;2022-10-26T11:16:36;101358.47;;;20.61;87.62
30338;BME280;17143;51.888;5.408;2022-10-26T11:31:44;101382.41;;;20.27;89.04
30338;BME280;17143;51.888;5.408;2022-10-26T11:46:50;101376.47;;;20.77;89.80
30338;BME280;17143;51.888;5.408;2022-10-26T12:01:57;101381.09;;;21.28;87.05
30338;BME280;17143;51.888;5.408;2022-10-26T12:17:06;101384.72;;;21.33;86.46
30338;BME280;17143;51.888;5.408;2022-10-26T12:48:04;101414.19;;;21.96;84.33
30338;BME280;17143;51.888;5.408;2022-10-26T13:03:29;101420.91;;;22.26;82.54
30338;BME280;17143;51.888;5.408;2022-10-26T13:18:40;101414.94;;;22.42;81.28
30338;BME280;17143;51.888;5.408;2022-10-26T13:33:43;101434.63;;;22.57;80.35
30338;BME280;17143;51.888;5.408;2022-10-26T13:48:47;101429.38;;;22.60;79.87
30338;BME280;17143;51.888;5.408;2022-10-26T14:03:50;101433.72;;;22.55;79.62
30338;BME280;17143;51.888;5.408;2022-10-26T14:18:53;101446.78;;;22.39;78.99
30338;BME280;17143;51.888;5.408;2022-10-26T14:33:56;101486.19;;;22.15;77.64
30338;BME280;17143;51.888;5.408;2022-10-26T14:49:00;101497.47;;;22.02;79.28
30338;BME280;17143;51.888;5.408;2022-10-26T15:04:04;101520.31;;;21.94;80.21
30338;BME280;17143;51.888;5.408;2022-10-26T15:19:09;101537.19;;;21.56;81.40
30338;BME280;17143;51.888;5.408;2022-10-26T15:34:14;101549.63;;;21.18;81.91
30338;BME280;17143;51.888;5.408;2022-10-26T15:49:17;101561.06;;;20.81;84.01
30338;BME280;17143;51.888;5.408;2022-10-26T16:04:20;101582.38;;;20.50;85.48
30338;BME280;17143;51.888;5.408;2022-10-26T16:19:22;101608.34;;;20.32;87.26
30338;BME280;17143;51.888;5.408;2022-10-26T16:34:24;101622.38;;;20.28;88.22
30338;BME280;17143;51.888;5.408;2022-10-26T16:49:26;101627.19;;;19.81;88.34
30338;BME280;17143;51.888;5.408;2022-10-26T17:04:28;101628.72;;;19.45;90.24
30338;BME280;17143;51.888;5.408;2022-10-26T17:19:29;101648.69;;;19.09;91.89
30338;BME280;17143;51.888;5.408;2022-10-26T17:34:31;101678.81;;;18.89;93.12
30338;BME280;17143;51.888;5.408;2022-10-26T17:49:33;101714.22;;;18.70;93.78
30338;BME280;17143;51.888;5.408;2022-10-26T18:04:35;101732.59;;;18.43;95.15
30338;BME280;17143;51.888;5.408;2022-10-26T18:19:37;101750.38;;;18.25;96.48
30338;BME280;17143;51.888;5.408;2022-10-26T18:34:39;101755.78;;;18.06;97.77
30338;BME280;17143;51.888;5.408;2022-10-26T18:49:41;101788.41;;;17.86;98.66
30338;BME280;17143;51.888;5.408;2022-10-26T19:04:43;101791.25;;;17.70;99.53
30338;BME280;17143;51.888;5.408;2022-10-26T19:19:45;101808.09;;;17.52;100.00
30338;BME280;17143;51.888;5.408;2022-10-26T19:34:47;101815.56;;;17.42;100.00
30338;BME280;17143;51.888;5.408;2022-10-26T19:49:49;101853.50;;;17.26;100.00
30338;BME280;17143;51.888;5.408;2022-10-26T20:04:51;101869.72;;;17.16;100.00
30338;BME280;17143;51.888;5.408;2022-10-26T20:19:53;101874.19;;;16.98;100.00
30338;BME280;17143;51.888;5.408;2022-10-26T20:34:55;101880.56;;;16.84;100.00
30338;BME280;17143;51.888;5.408;2022-10-26T20:49:58;101897.28;;;16.65;100.00
30338;BME280;17143;51.888;5.408;2022-10-26T21:05:00;101906.97;;;16.49;100.00
30338;BME280;17143;51.888;5.408;2022-10-26T21:20:02;101897.16;;;16.27;100.00
30338;BME280;17143;51.888;5.408;2022-10-26T21:35:05;101919.59;;;16.20;100.00
30338;BME280;17143;51.888;5.408;2022-10-26T21:50:08;101910.31;;;16.09;100.00
30338;BME280;17143;51.888;5.408;2022-10-26T22:05:10;101923.69;;;15.96;100.00
30338;BME280;17143;51.888;5.408;2022-10-26T22:20:12;101934.09;;;15.95;100.00
30338;BME280;17143;51.888;5.408;2022-10-26T22:35:14;101926.53;;;16.01;100.00
30338;BME280;17143;51.888;5.408;2022-10-26T22:50:16;101931.34;;;16.09;100.00
30338;BME280;17143;51.888;5.408;2022-10-26T23:05:18;101933.28;;;16.13;100.00
30338;BME280;17143;51.888;5.408;2022-10-26T23:20:20;101934.94;;;16.11;100.00
30338;BME280;17143;51.888;5.408;2022-10-26T23:35:22;101940.97;;;16.09;100.00
30338;BME280;17143;51.888;5.408;2022-10-26T23:50:24;101959.91;;;16.02;100.00
